createdAt,value
2016-11-15T08:18:52.090Z,1018.12
2016-11-15T08:19:26.030Z,1018.09
2016-11-15T08:20:34.634Z,1018.12
2016-11-15T08:21:43.251Z,1018.11
2016-11-15T08:22:51.876Z,1018.1
2016-11-15T08:24:00.523Z,1018.05
2016-11-15T08:25:09.135Z,1018.08
2016-11-15T08:26:17.770Z,1018.06
2016-11-15T08:27:26.413Z,1018.07
2016-11-15T08:28:35.036Z,1018.08
2016-11-15T08:29:43.678Z,1018.15
2016-11-15T08:30:52.325Z,1018.19
2016-11-15T08:32:00.975Z,1018.17
2016-11-15T08:33:09.621Z,1018.11
2016-11-15T08:34:18.267Z,1018.16
2016-11-15T08:35:26.894Z,1018.13
2016-11-15T08:36:35.528Z,1018.13
2016-11-15T08:37:44.478Z,1018.16
2016-11-15T08:38:53.091Z,1018.13
2016-11-15T08:40:01.725Z,1018.12
2016-11-15T08:41:10.346Z,1018.12
2016-11-15T08:42:18.966Z,1018.04
2016-11-15T08:43:27.609Z,1018.07
2016-11-15T08:44:36.247Z,1018.08
2016-11-15T08:45:44.856Z,1018.06
2016-11-15T08:46:53.481Z,1018.12
2016-11-15T08:48:02.098Z,1018.15
2016-11-15T08:49:10.740Z,1018.13
2016-11-15T08:50:19.360Z,1018.13
2016-11-15T08:51:28.011Z,1018.12
2016-11-15T08:52:36.620Z,1018.1
2016-11-15T08:53:45.240Z,1018.05
2016-11-15T08:54:59.087Z,1018.03
2016-11-15T08:56:08.084Z,1018.08
2016-11-15T08:57:16.741Z,1018.07
2016-11-15T08:58:25.375Z,1018.12
2016-11-15T08:59:33.982Z,1018.09
2016-11-15T09:00:42.650Z,1018.09
2016-11-15T09:01:51.254Z,1018.09
2016-11-15T09:02:59.871Z,1018.07
2016-11-15T09:04:08.513Z,1018.01
2016-11-15T09:05:17.135Z,1018.04
2016-11-15T09:06:25.760Z,1018
2016-11-15T09:07:34.399Z,1017.97
2016-11-15T09:08:43.324Z,1017.93
2016-11-15T09:09:51.978Z,1017.95
2016-11-15T09:11:00.595Z,1017.9
2016-11-15T09:12:09.218Z,1017.89
2016-11-15T09:13:17.862Z,1017.9
2016-11-15T09:14:26.509Z,1017.94
2016-11-15T09:15:35.131Z,1017.9
2016-11-15T09:16:43.723Z,1017.88
2016-11-15T09:17:52.340Z,1017.87
2016-11-15T09:19:00.965Z,1017.89
2016-11-15T09:20:09.586Z,1017.94
2016-11-15T09:21:18.200Z,1017.9
2016-11-15T09:22:26.850Z,1017.9
2016-11-15T09:23:35.479Z,1017.89
2016-11-15T09:24:44.113Z,1017.86
2016-11-15T09:25:52.738Z,1017.86
2016-11-15T09:27:01.355Z,1017.91
2016-11-15T09:28:09.964Z,1017.9
2016-11-15T09:29:18.584Z,1017.88
2016-11-15T09:30:27.203Z,1017.95
2016-11-15T09:31:35.794Z,1017.93
2016-11-15T09:32:44.473Z,1017.89
2016-11-15T09:33:53.423Z,1017.87
2016-11-15T09:35:02.047Z,1017.87
2016-11-15T09:36:10.662Z,1017.86
2016-11-15T09:37:19.275Z,1017.89
2016-11-15T09:38:27.928Z,1017.83
2016-11-15T09:39:36.570Z,1017.81
2016-11-15T09:40:45.209Z,1017.82
2016-11-15T09:41:53.842Z,1017.87
2016-11-15T09:43:02.937Z,1017.87
2016-11-15T09:44:12.402Z,1017.86
2016-11-15T09:45:21.030Z,1017.78
2016-11-15T09:46:29.647Z,1017.77
2016-11-15T09:47:38.270Z,1017.79
2016-11-15T09:48:47.171Z,1017.8
2016-11-15T09:49:55.789Z,1017.84
2016-11-15T09:51:04.704Z,1017.82
2016-11-15T09:52:13.329Z,1017.82
2016-11-15T09:53:21.934Z,1017.77
2016-11-15T09:54:30.551Z,1017.79
2016-11-15T09:55:39.164Z,1017.72
2016-11-15T09:56:47.767Z,1017.75
2016-11-15T09:57:56.359Z,1017.78
2016-11-15T09:59:04.998Z,1017.78
2016-11-15T10:00:13.602Z,1017.79
2016-11-15T10:01:22.228Z,1017.76
2016-11-15T10:02:30.844Z,1017.77
2016-11-15T10:03:39.440Z,1017.76
2016-11-15T10:04:48.070Z,1017.75
2016-11-15T10:05:56.682Z,1017.73
2016-11-15T10:07:05.303Z,1017.71
2016-11-15T10:08:13.925Z,1017.69
2016-11-15T10:09:22.551Z,1017.73
2016-11-15T10:10:31.196Z,1017.7
2016-11-15T10:11:39.817Z,1017.71
2016-11-15T10:12:48.451Z,1017.68
2016-11-15T10:13:57.088Z,1017.69
2016-11-15T10:15:05.723Z,1017.63
2016-11-15T10:16:14.369Z,1017.6
2016-11-15T10:17:22.986Z,1017.61
2016-11-15T10:18:31.612Z,1017.58
2016-11-15T10:19:40.832Z,1017.52
2016-11-15T10:20:49.513Z,1017.41
2016-11-15T10:21:58.503Z,1017.42
2016-11-15T10:23:07.124Z,1017.42
2016-11-15T10:24:15.745Z,1017.42
2016-11-15T10:25:24.420Z,1017.38
2016-11-15T10:26:33.067Z,1017.36
2016-11-15T10:27:41.687Z,1017.29
2016-11-15T10:28:50.326Z,1017.23
2016-11-15T10:29:58.934Z,1017.24
2016-11-15T10:31:07.564Z,1017.23
2016-11-15T10:32:16.173Z,1017.15
2016-11-15T10:33:24.792Z,1017.12
2016-11-15T10:34:33.414Z,1017.06
2016-11-15T10:35:42.081Z,1017.11
2016-11-15T10:36:50.681Z,1017.07
2016-11-15T10:37:59.291Z,1017.05
2016-11-15T10:39:07.920Z,1017.03
2016-11-15T10:40:16.557Z,1016.99
2016-11-15T10:41:25.191Z,1016.97
2016-11-15T10:42:33.830Z,1017
2016-11-15T10:43:42.480Z,1016.99
2016-11-15T10:44:51.093Z,1016.92
2016-11-15T10:45:59.690Z,1016.94
2016-11-15T10:47:08.285Z,1016.94
2016-11-15T10:48:16.905Z,1016.88
2016-11-15T10:49:25.502Z,1016.85
2016-11-15T10:50:34.132Z,1016.91
2016-11-15T10:51:42.748Z,1016.89
2016-11-15T10:52:51.378Z,1016.85
2016-11-15T10:53:59.997Z,1016.92
2016-11-15T10:55:08.637Z,1016.87
2016-11-15T10:56:17.240Z,1016.9
2016-11-15T10:57:25.855Z,1016.88
2016-11-15T10:58:34.501Z,1016.85
2016-11-15T10:59:43.125Z,1016.8
2016-11-15T11:00:51.746Z,1016.76
2016-11-15T11:02:00.369Z,1016.79
2016-11-15T11:03:09.272Z,1016.76
2016-11-15T11:04:17.914Z,1016.72
2016-11-15T11:05:26.548Z,1016.69
2016-11-15T11:06:35.169Z,1016.67
2016-11-15T11:07:43.797Z,1016.69
2016-11-15T11:08:52.398Z,1016.73
2016-11-15T11:10:01.007Z,1016.66
2016-11-15T11:11:09.936Z,1016.67
2016-11-15T11:12:18.554Z,1016.65
2016-11-15T11:13:27.220Z,1016.64
2016-11-15T11:14:35.853Z,1016.62
2016-11-15T11:15:44.474Z,1016.63
2016-11-15T11:16:53.084Z,1016.58
2016-11-15T11:18:01.688Z,1016.59
2016-11-15T11:19:10.280Z,1016.58
2016-11-15T11:20:18.927Z,1016.58
2016-11-15T11:21:27.557Z,1016.56
2016-11-15T11:22:36.196Z,1016.57
2016-11-15T11:23:44.822Z,1016.55
2016-11-15T11:24:53.443Z,1016.55
2016-11-15T11:26:02.089Z,1016.51
2016-11-15T11:27:10.736Z,1016.57
2016-11-15T11:28:19.345Z,1016.59
2016-11-15T11:29:27.971Z,1016.58
2016-11-15T11:30:36.592Z,1016.56
2016-11-15T11:31:45.218Z,1016.56
2016-11-15T11:32:53.861Z,1016.57
2016-11-15T11:34:02.450Z,1016.53
2016-11-15T11:35:11.096Z,1016.5
2016-11-15T11:36:19.723Z,1016.52
2016-11-15T11:37:28.314Z,1016.54
2016-11-15T11:38:36.914Z,1016.48
2016-11-15T11:39:45.538Z,1016.51
2016-11-15T11:40:54.164Z,1016.5
2016-11-15T11:42:02.805Z,1016.5
2016-11-15T11:43:11.406Z,1016.49
2016-11-15T11:44:20.029Z,1016.45
2016-11-15T11:45:28.666Z,1016.41
2016-11-15T11:46:37.287Z,1016.41
2016-11-15T11:47:45.934Z,1016.36
2016-11-15T11:48:54.525Z,1016.26
2016-11-15T11:50:03.147Z,1016.26
2016-11-15T11:51:11.750Z,1016.22
2016-11-15T11:52:20.388Z,1016.19
2016-11-15T11:53:29.009Z,1016.23
2016-11-15T11:54:37.613Z,1016.21
2016-11-15T11:55:46.240Z,1016.22
2016-11-15T11:56:54.873Z,1016.16
2016-11-15T11:58:03.476Z,1016.13
2016-11-15T11:59:12.090Z,1016.06
2016-11-15T12:00:20.717Z,1015.94
2016-11-15T12:01:29.370Z,1015.92
2016-11-15T12:02:37.995Z,1015.89
2016-11-15T12:03:46.625Z,1015.92
2016-11-15T12:04:55.230Z,1015.92
2016-11-15T12:06:03.845Z,1015.84
2016-11-15T12:07:12.473Z,1015.85
2016-11-15T12:08:21.095Z,1015.89
2016-11-15T12:09:29.704Z,1015.84
2016-11-15T12:10:38.339Z,1015.89
2016-11-15T12:11:47.010Z,1015.84
2016-11-15T12:12:55.693Z,1015.87
2016-11-15T12:14:04.304Z,1015.85
2016-11-15T12:15:12.921Z,1015.79
2016-11-15T12:16:21.536Z,1015.77
2016-11-15T12:17:30.183Z,1015.74
2016-11-15T12:18:38.836Z,1015.73
2016-11-15T12:19:47.451Z,1015.67
2016-11-15T12:20:56.104Z,1015.72
2016-11-15T12:22:04.745Z,1015.69
2016-11-15T12:23:13.387Z,1015.72
2016-11-15T12:24:22.016Z,1015.68
2016-11-15T12:25:30.630Z,1015.69
2016-11-15T12:26:39.237Z,1015.68
2016-11-15T12:27:47.850Z,1015.66
2016-11-15T12:28:56.474Z,1015.64
2016-11-15T12:30:05.096Z,1015.66
2016-11-15T12:31:13.731Z,1015.64
2016-11-15T12:32:22.364Z,1015.64
2016-11-15T12:33:30.998Z,1015.64
2016-11-15T12:34:39.628Z,1015.67
2016-11-15T12:35:48.245Z,1015.69
2016-11-15T12:36:56.867Z,1015.71
2016-11-15T12:38:05.466Z,1015.66
2016-11-15T12:39:14.083Z,1015.68
2016-11-15T12:40:22.674Z,1015.63
2016-11-15T12:41:31.305Z,1015.66
2016-11-15T12:42:39.922Z,1015.71
2016-11-15T12:43:48.546Z,1015.66
2016-11-15T12:44:57.164Z,1015.64
2016-11-15T12:46:05.788Z,1015.63
2016-11-15T12:47:14.413Z,1015.64
2016-11-15T12:48:23.033Z,1015.69
2016-11-15T12:49:31.644Z,1015.66
2016-11-15T12:50:40.277Z,1015.7
2016-11-15T12:51:48.890Z,1015.65
2016-11-15T12:52:57.515Z,1015.63
2016-11-15T12:54:06.117Z,1015.6
2016-11-15T12:55:14.733Z,1015.59
2016-11-15T12:56:23.355Z,1015.53
2016-11-15T12:57:31.983Z,1015.53
2016-11-15T12:58:40.601Z,1015.48
2016-11-15T12:59:49.199Z,1015.44
2016-11-15T13:00:57.809Z,1015.43
2016-11-15T13:02:06.436Z,1015.41
2016-11-15T13:03:15.055Z,1015.41
2016-11-15T13:04:23.678Z,1015.34
2016-11-15T13:05:32.294Z,1015.35
2016-11-15T13:06:40.916Z,1015.35
2016-11-15T13:07:49.544Z,1015.36
2016-11-15T13:08:58.152Z,1015.32
2016-11-15T13:10:06.757Z,1015.29
2016-11-15T13:11:15.400Z,1015.29
2016-11-15T13:12:24.029Z,1015.24
2016-11-15T13:13:32.637Z,1015.25
2016-11-15T13:14:41.263Z,1015.18
2016-11-15T13:15:49.893Z,1015.14
2016-11-15T13:16:58.551Z,1015.1
2016-11-15T13:18:07.177Z,1015.07
2016-11-15T13:19:15.781Z,1015.1
2016-11-15T13:20:24.400Z,1015.12
2016-11-15T13:21:33.039Z,1015.13
2016-11-15T13:22:41.664Z,1015.06
2016-11-15T13:23:50.257Z,1015.11
2016-11-15T13:24:58.879Z,1014.99
2016-11-15T13:26:07.503Z,1014.93
2016-11-15T13:27:16.427Z,1014.94
2016-11-15T13:28:25.063Z,1014.91
2016-11-15T13:29:33.665Z,1014.91
2016-11-15T13:30:42.296Z,1014.94
2016-11-15T13:31:50.938Z,1014.9
2016-11-15T13:32:59.572Z,1014.89
2016-11-15T13:34:08.204Z,1014.88
2016-11-15T13:35:16.823Z,1014.89
2016-11-15T13:36:25.746Z,1014.86
2016-11-15T13:37:34.369Z,1014.89
2016-11-15T13:38:43.027Z,1014.89
2016-11-15T13:39:51.661Z,1014.87
2016-11-15T13:41:00.273Z,1014.87
2016-11-15T13:42:08.895Z,1014.87
2016-11-15T13:43:17.512Z,1014.9
2016-11-15T13:44:26.147Z,1014.93
2016-11-15T13:45:34.783Z,1014.92
2016-11-15T13:46:43.408Z,1014.97
2016-11-15T13:47:52.042Z,1014.94
2016-11-15T13:49:00.643Z,1014.87
2016-11-15T13:50:09.273Z,1014.94
2016-11-15T13:51:17.877Z,1014.9
2016-11-15T13:52:26.485Z,1014.87
2016-11-15T13:53:35.127Z,1014.78
2016-11-15T13:54:43.730Z,1014.78
2016-11-15T13:55:52.327Z,1014.76
2016-11-15T13:57:00.930Z,1014.76
2016-11-15T13:58:09.562Z,1014.73
2016-11-15T13:59:18.169Z,1014.73
2016-11-15T14:00:26.808Z,1014.77
2016-11-15T14:01:35.439Z,1014.74
2016-11-15T14:02:44.121Z,1014.69
2016-11-15T14:03:52.726Z,1014.68
2016-11-15T14:05:01.342Z,1014.65
2016-11-15T14:06:09.983Z,1014.63
2016-11-15T14:07:18.591Z,1014.64
2016-11-15T14:08:27.209Z,1014.67
2016-11-15T14:09:35.809Z,1014.6
2016-11-15T14:10:44.479Z,1014.64
2016-11-15T14:11:53.126Z,1014.56
2016-11-15T14:13:01.766Z,1014.55
2016-11-15T14:14:10.394Z,1014.56
2016-11-15T14:15:19.012Z,1014.52
2016-11-15T14:16:27.624Z,1014.53
2016-11-15T14:17:36.225Z,1014.44
2016-11-15T14:18:44.857Z,1014.44
2016-11-15T14:19:53.477Z,1014.44
2016-11-15T14:21:02.091Z,1014.4
2016-11-15T14:22:10.713Z,1014.44
2016-11-15T14:23:19.330Z,1014.42
2016-11-15T14:24:27.959Z,1014.46
2016-11-15T14:25:36.569Z,1014.46
2016-11-15T14:26:45.172Z,1014.45
2016-11-15T14:27:53.791Z,1014.46
2016-11-15T14:29:02.432Z,1014.46
2016-11-15T14:30:11.041Z,1014.5
2016-11-15T14:31:19.682Z,1014.51
2016-11-15T14:32:28.299Z,1014.5
2016-11-15T14:33:37.274Z,1014.47
2016-11-15T14:34:45.895Z,1014.46
2016-11-15T14:35:54.509Z,1014.38
2016-11-15T14:37:03.442Z,1014.43
2016-11-15T14:38:12.075Z,1014.42
2016-11-15T14:39:20.686Z,1014.45
2016-11-15T14:40:29.672Z,1014.46
2016-11-15T14:41:38.314Z,1014.44
2016-11-15T14:42:46.918Z,1014.48
2016-11-15T14:43:55.560Z,1014.43
2016-11-15T14:45:04.177Z,1014.4
2016-11-15T14:46:12.804Z,1014.43
2016-11-15T14:47:21.757Z,1014.36
2016-11-15T14:48:30.403Z,1014.41
2016-11-15T14:49:39.025Z,1014.38
2016-11-15T14:50:47.658Z,1014.42
2016-11-15T14:51:56.288Z,1014.43
2016-11-15T14:53:04.938Z,1014.4
2016-11-15T14:54:13.572Z,1014.45
2016-11-15T14:55:22.176Z,1014.4
2016-11-15T14:56:30.794Z,1014.35
2016-11-15T14:57:39.415Z,1014.35
2016-11-15T14:58:48.010Z,1014.36
2016-11-15T14:59:56.653Z,1014.38
2016-11-15T15:01:05.261Z,1014.34
2016-11-15T15:02:13.877Z,1014.38
2016-11-15T15:03:22.491Z,1014.35
2016-11-15T15:04:31.118Z,1014.28
2016-11-15T15:05:39.763Z,1014.29
2016-11-15T15:06:48.442Z,1014.24
2016-11-15T15:07:57.083Z,1014.2
2016-11-15T15:09:05.706Z,1014.18
2016-11-15T15:10:14.354Z,1014.15
2016-11-15T15:11:22.995Z,1014.15
2016-11-15T15:12:31.592Z,1014.12
2016-11-15T15:13:40.215Z,1014.16
2016-11-15T15:14:48.838Z,1014.05
2016-11-15T15:15:57.453Z,1014.12
2016-11-15T15:17:06.063Z,1014.11
2016-11-15T15:18:14.978Z,1014.18
2016-11-15T15:19:23.587Z,1014.14
2016-11-15T15:20:32.212Z,1014.12
2016-11-15T15:21:40.843Z,1014.18
2016-11-15T15:22:49.457Z,1014.14
2016-11-15T15:23:58.072Z,1014.09
2016-11-15T15:25:06.680Z,1014.14
2016-11-15T15:26:15.300Z,1014.1
2016-11-15T15:27:23.923Z,1014.09
2016-11-15T15:28:32.555Z,1014.06
2016-11-15T15:29:41.213Z,1014.05
2016-11-15T15:30:49.861Z,1014.05
2016-11-15T15:31:58.498Z,1014.09
2016-11-15T15:33:07.128Z,1014.06
2016-11-15T15:34:15.745Z,1014.06
2016-11-15T15:35:24.365Z,1014.03
2016-11-15T15:36:32.992Z,1014.03
2016-11-15T15:37:41.932Z,1014.02
2016-11-15T15:38:50.574Z,1014.03
2016-11-15T15:39:59.196Z,1014
2016-11-15T15:41:07.813Z,1013.99
2016-11-15T15:42:16.416Z,1013.95
2016-11-15T15:43:25.042Z,1013.93
2016-11-15T15:44:33.661Z,1013.86
2016-11-15T15:45:42.284Z,1013.81
2016-11-15T15:46:50.904Z,1013.81
2016-11-15T15:47:59.515Z,1013.86
2016-11-15T15:49:08.124Z,1013.87
2016-11-15T15:50:17.164Z,1013.88
2016-11-15T15:51:25.802Z,1013.87
2016-11-15T15:52:34.412Z,1013.91
2016-11-15T15:53:43.074Z,1013.86
2016-11-15T15:54:51.698Z,1013.82
2016-11-15T15:56:00.321Z,1013.73
2016-11-15T15:57:08.937Z,1013.65
2016-11-15T15:58:17.579Z,1013.53
2016-11-15T15:59:26.199Z,1013.55
2016-11-15T16:00:34.828Z,1013.55
2016-11-15T16:01:43.450Z,1013.55
2016-11-15T16:02:52.092Z,1013.57
2016-11-15T16:04:00.709Z,1013.52
2016-11-15T16:05:09.330Z,1013.57
2016-11-15T16:06:17.934Z,1013.63
2016-11-15T16:07:26.579Z,1013.59
2016-11-15T16:08:35.206Z,1013.62
2016-11-15T16:09:43.840Z,1013.65
2016-11-15T16:10:52.465Z,1013.66
2016-11-15T16:12:01.114Z,1013.65
2016-11-15T16:13:09.733Z,1013.63
2016-11-15T16:14:18.360Z,1013.63
2016-11-15T16:15:26.999Z,1013.61
2016-11-15T16:16:35.645Z,1013.56
2016-11-15T16:17:44.269Z,1013.53
2016-11-15T16:18:52.908Z,1013.57
2016-11-15T16:20:01.517Z,1013.55
2016-11-15T16:21:10.141Z,1013.58
2016-11-15T16:22:18.779Z,1013.54
2016-11-15T16:23:27.418Z,1013.45
2016-11-15T16:24:36.039Z,1013.51
2016-11-15T16:25:44.667Z,1013.55
2016-11-15T16:26:53.285Z,1013.59
2016-11-15T16:28:01.913Z,1013.59
2016-11-15T16:29:10.555Z,1013.57
2016-11-15T16:30:19.177Z,1013.56
2016-11-15T16:31:27.802Z,1013.62
2016-11-15T16:32:36.426Z,1013.56
2016-11-15T16:33:45.044Z,1013.54
2016-11-15T16:34:53.678Z,1013.49
2016-11-15T16:36:02.291Z,1013.51
2016-11-15T16:37:10.908Z,1013.52
2016-11-15T16:38:19.521Z,1013.56
2016-11-15T16:39:28.142Z,1013.63
2016-11-15T16:40:36.768Z,1013.67
2016-11-15T16:41:45.388Z,1013.58
2016-11-15T16:42:54.008Z,1013.55
2016-11-15T16:44:02.630Z,1013.58
2016-11-15T16:45:11.578Z,1013.62
2016-11-15T16:46:20.200Z,1013.65
2016-11-15T16:47:28.835Z,1013.6
2016-11-15T16:48:37.517Z,1013.6
2016-11-15T16:49:46.130Z,1013.58
2016-11-15T16:50:54.756Z,1013.6
2016-11-15T16:52:03.381Z,1013.59
2016-11-15T16:53:12.020Z,1013.59
2016-11-15T16:54:20.648Z,1013.56
2016-11-15T16:55:29.290Z,1013.56
2016-11-15T16:56:37.920Z,1013.59
2016-11-15T16:57:46.525Z,1013.58
2016-11-15T16:58:55.146Z,1013.54
2016-11-15T17:00:03.753Z,1013.55
2016-11-15T17:01:12.363Z,1013.51
2016-11-15T17:02:20.988Z,1013.5
2016-11-15T17:03:29.592Z,1013.49
2016-11-15T17:04:38.209Z,1013.48
2016-11-15T17:05:46.832Z,1013.48
2016-11-15T17:06:55.481Z,1013.4
2016-11-15T17:08:04.099Z,1013.38
2016-11-15T17:09:12.685Z,1013.41
2016-11-15T17:10:21.311Z,1013.4
2016-11-15T17:11:29.915Z,1013.42
2016-11-15T17:12:38.580Z,1013.41
2016-11-15T17:13:47.207Z,1013.43
2016-11-15T17:14:55.827Z,1013.42
2016-11-15T17:16:04.441Z,1013.42
2016-11-15T17:17:13.058Z,1013.45
2016-11-15T17:18:21.683Z,1013.45
2016-11-15T17:19:30.318Z,1013.43
2016-11-15T17:20:38.934Z,1013.47
2016-11-15T17:21:47.567Z,1013.5
2016-11-15T17:22:56.213Z,1013.48
2016-11-15T17:24:04.820Z,1013.41
2016-11-15T17:25:13.441Z,1013.48
2016-11-15T17:26:22.059Z,1013.49
2016-11-15T17:27:30.681Z,1013.47
2016-11-15T17:28:39.305Z,1013.37
2016-11-15T17:29:47.940Z,1013.35
2016-11-15T17:30:56.566Z,1013.38
2016-11-15T17:32:05.196Z,1013.41
2016-11-15T17:33:13.811Z,1013.31
2016-11-15T17:34:22.454Z,1013.29
2016-11-15T17:35:31.096Z,1013.37
2016-11-15T17:36:39.705Z,1013.32
2016-11-15T17:37:48.338Z,1013.21
2016-11-15T17:38:56.952Z,1013.2
2016-11-15T17:40:05.580Z,1013.15
2016-11-15T17:41:14.214Z,1013.1
2016-11-15T17:42:22.859Z,1013.13
2016-11-15T17:43:31.472Z,1013.13
2016-11-15T17:44:40.114Z,1013.14
2016-11-15T17:45:48.735Z,1013.1
2016-11-15T17:46:57.331Z,1013.17
2016-11-15T17:48:05.937Z,1013.15
2016-11-15T17:49:14.561Z,1013.14
2016-11-15T17:50:23.195Z,1013.14
2016-11-15T17:51:31.791Z,1013.14
2016-11-15T17:52:40.399Z,1013.1
2016-11-15T17:53:49.038Z,1013.12
2016-11-15T17:54:57.709Z,1013.17
2016-11-15T17:56:06.330Z,1013.05
2016-11-15T17:57:14.957Z,1013.1
2016-11-15T17:58:23.573Z,1013.09
2016-11-15T17:59:32.222Z,1013.03
2016-11-15T18:00:40.849Z,1013.05
2016-11-15T18:01:49.464Z,1013.09
2016-11-15T18:02:58.103Z,1013.09
2016-11-15T18:04:06.728Z,1013.07
2016-11-15T18:05:15.358Z,1013.05
2016-11-15T18:06:24.003Z,1013.08
2016-11-15T18:07:32.637Z,1013.11
2016-11-15T18:08:41.262Z,1013.06
2016-11-15T18:09:49.884Z,1013.09
2016-11-15T18:10:58.511Z,1013.06
2016-11-15T18:12:07.121Z,1013.04
2016-11-15T18:13:15.729Z,1013.04
2016-11-15T18:14:24.346Z,1013.01
2016-11-15T18:15:32.967Z,1013.05
2016-11-15T18:16:41.556Z,1013.04
2016-11-15T18:17:50.162Z,1013.08
2016-11-15T18:18:58.797Z,1013.09
2016-11-15T18:20:07.423Z,1013.12
2016-11-15T18:21:16.044Z,1013.11
2016-11-15T18:22:24.969Z,1013.1
2016-11-15T18:23:33.595Z,1013.1
2016-11-15T18:24:42.211Z,1013.03
2016-11-15T18:25:50.829Z,1013.06
2016-11-15T18:26:59.460Z,1013.05
2016-11-15T18:28:08.092Z,1013.05
2016-11-15T18:29:16.718Z,1013.02
2016-11-15T18:30:25.350Z,1013.03
2016-11-15T18:31:33.963Z,1013.11
2016-11-15T18:32:42.590Z,1013.09
2016-11-15T18:33:51.203Z,1013.07
2016-11-15T18:34:59.849Z,1013.07
2016-11-15T18:36:08.468Z,1012.95
2016-11-15T18:37:17.115Z,1012.99
2016-11-15T18:38:25.745Z,1012.95
2016-11-15T18:39:34.386Z,1012.92
2016-11-15T18:40:43.000Z,1012.89
2016-11-15T18:41:51.621Z,1012.94
2016-11-15T18:43:00.222Z,1012.89
2016-11-15T18:44:08.851Z,1012.94
2016-11-15T18:45:17.784Z,1012.92
2016-11-15T18:46:26.421Z,1012.99
2016-11-15T18:47:35.051Z,1012.99
2016-11-15T18:48:43.680Z,1012.98
2016-11-15T18:49:52.299Z,1012.95
2016-11-15T18:51:00.928Z,1012.93
2016-11-15T18:52:09.566Z,1012.97
2016-11-15T18:53:18.207Z,1012.94
2016-11-15T18:54:26.811Z,1012.96
2016-11-15T18:55:35.436Z,1012.96
2016-11-15T18:56:44.078Z,1012.96
2016-11-15T18:57:52.679Z,1013
2016-11-15T18:59:01.295Z,1012.98
2016-11-15T19:00:09.893Z,1012.99
2016-11-15T19:01:18.514Z,1012.99
2016-11-15T19:02:27.126Z,1012.94
2016-11-15T19:03:35.753Z,1012.97
2016-11-15T19:04:44.376Z,1012.96
2016-11-15T19:05:53.023Z,1013
2016-11-15T19:07:01.641Z,1012.96
2016-11-15T19:08:10.273Z,1012.94
2016-11-15T19:09:18.903Z,1012.9
2016-11-15T19:10:27.504Z,1012.93
2016-11-15T19:11:36.129Z,1012.95
2016-11-15T19:12:44.747Z,1012.87
2016-11-15T19:13:53.370Z,1012.87
2016-11-15T19:15:01.992Z,1012.8
2016-11-15T19:16:10.656Z,1012.87
2016-11-15T19:17:19.256Z,1012.88
2016-11-15T19:18:27.880Z,1012.83
2016-11-15T19:19:36.498Z,1012.78
2016-11-15T19:20:45.144Z,1012.75
2016-11-15T19:21:53.765Z,1012.78
2016-11-15T19:23:02.411Z,1012.75
2016-11-15T19:24:11.043Z,1012.75
2016-11-15T19:25:19.657Z,1012.76
2016-11-15T19:26:28.286Z,1012.71
2016-11-15T19:27:36.929Z,1012.7
2016-11-15T19:28:45.580Z,1012.69
2016-11-15T19:29:54.197Z,1012.74
2016-11-15T19:31:02.787Z,1012.69
2016-11-15T19:32:11.413Z,1012.69
2016-11-15T19:33:20.034Z,1012.75
2016-11-15T19:34:28.672Z,1012.79
2016-11-15T19:35:37.289Z,1012.73
2016-11-15T19:36:45.918Z,1012.67
2016-11-15T19:37:54.536Z,1012.69
2016-11-15T19:39:03.160Z,1012.7
2016-11-15T19:40:11.788Z,1012.68
2016-11-15T19:41:20.402Z,1012.74
2016-11-15T19:42:29.029Z,1012.68
2016-11-15T19:43:37.663Z,1012.72
2016-11-15T19:44:46.283Z,1012.75
2016-11-15T19:45:54.917Z,1012.74
2016-11-15T19:47:03.526Z,1012.74
2016-11-15T19:48:12.177Z,1012.71
2016-11-15T19:49:20.801Z,1012.73
2016-11-15T19:50:29.443Z,1012.73
2016-11-15T19:51:38.108Z,1012.73
2016-11-15T19:52:47.039Z,1012.69
2016-11-15T19:53:55.669Z,1012.75
2016-11-15T19:55:04.282Z,1012.75
2016-11-15T19:56:12.903Z,1012.73
2016-11-15T19:57:21.527Z,1012.7
2016-11-15T19:58:30.151Z,1012.72
2016-11-15T19:59:38.790Z,1012.77
2016-11-15T20:00:47.429Z,1012.71
2016-11-15T20:01:56.033Z,1012.77
2016-11-15T20:03:04.652Z,1012.78
2016-11-15T20:04:13.275Z,1012.8
2016-11-15T20:05:21.901Z,1012.75
2016-11-15T20:06:30.543Z,1012.73
2016-11-15T20:07:39.147Z,1012.83
2016-11-15T20:08:47.756Z,1012.78
2016-11-15T20:09:56.403Z,1012.7
2016-11-15T20:11:05.026Z,1012.75
2016-11-15T20:12:13.695Z,1012.73
2016-11-15T20:13:22.299Z,1012.73
2016-11-15T20:14:30.940Z,1012.71
2016-11-15T20:15:39.540Z,1012.71
2016-11-15T20:16:48.151Z,1012.78
2016-11-15T20:17:56.783Z,1012.76
2016-11-15T20:19:05.416Z,1012.8
2016-11-15T20:20:14.043Z,1012.87
2016-11-15T20:21:22.659Z,1012.82
2016-11-15T20:22:31.568Z,1012.78
2016-11-15T20:23:40.187Z,1012.78
2016-11-15T20:24:48.806Z,1012.78
2016-11-15T20:25:57.425Z,1012.73
2016-11-15T20:27:06.069Z,1012.74
2016-11-15T20:28:14.690Z,1012.75
2016-11-15T20:29:23.311Z,1012.77
2016-11-15T20:30:31.938Z,1012.77
2016-11-15T20:31:40.556Z,1012.77
2016-11-15T20:32:49.174Z,1012.78
2016-11-15T20:33:58.099Z,1012.72
2016-11-15T20:35:06.737Z,1012.74
2016-11-15T20:36:15.357Z,1012.72
2016-11-15T20:37:24.015Z,1012.69
2016-11-15T20:38:32.650Z,1012.68
2016-11-15T20:39:41.546Z,1012.65
2016-11-15T20:40:50.456Z,1012.62
2016-11-15T20:41:59.077Z,1012.64
2016-11-15T20:43:07.693Z,1012.65
2016-11-15T20:44:16.312Z,1012.62
2016-11-15T20:45:24.933Z,1012.62
2016-11-15T20:46:33.553Z,1012.64
2016-11-15T20:47:42.156Z,1012.62
2016-11-15T20:48:50.773Z,1012.6
2016-11-15T20:49:59.394Z,1012.61
2016-11-15T20:51:08.011Z,1012.57
2016-11-15T20:52:16.632Z,1012.68
2016-11-15T20:53:25.225Z,1012.65
2016-11-15T20:54:33.841Z,1012.62
2016-11-15T20:55:42.438Z,1012.57
2016-11-15T20:56:51.038Z,1012.61
2016-11-15T20:57:59.633Z,1012.6
2016-11-15T20:59:08.263Z,1012.61
2016-11-15T21:00:16.887Z,1012.65
2016-11-15T21:01:25.521Z,1012.62
2016-11-15T21:02:34.444Z,1012.7
2016-11-15T21:03:43.071Z,1012.65
2016-11-15T21:04:51.696Z,1012.63
2016-11-15T21:06:00.313Z,1012.61
2016-11-15T21:07:08.959Z,1012.62
2016-11-15T21:08:17.622Z,1012.56
2016-11-15T21:09:26.254Z,1012.53
2016-11-15T21:10:34.878Z,1012.61
2016-11-15T21:11:43.513Z,1012.59
2016-11-15T21:12:52.130Z,1012.44
2016-11-15T21:14:00.785Z,1012.45
2016-11-15T21:15:09.405Z,1012.49
2016-11-15T21:16:18.051Z,1012.45
2016-11-15T21:17:26.689Z,1012.49
2016-11-15T21:18:35.306Z,1012.5
2016-11-15T21:19:43.934Z,1012.54
2016-11-15T21:20:52.552Z,1012.58
2016-11-15T21:22:01.201Z,1012.6
2016-11-15T21:23:09.852Z,1012.58
2016-11-15T21:24:18.493Z,1012.53
2016-11-15T21:25:27.131Z,1012.59
2016-11-15T21:26:35.752Z,1012.59
2016-11-15T21:27:44.360Z,1012.6
2016-11-15T21:28:52.970Z,1012.59
2016-11-15T21:30:01.581Z,1012.6
2016-11-15T21:31:10.199Z,1012.66
2016-11-15T21:32:18.821Z,1012.63
2016-11-15T21:33:27.441Z,1012.66
2016-11-15T21:34:36.087Z,1012.69
2016-11-15T21:35:44.755Z,1012.63
2016-11-15T21:36:53.376Z,1012.66
2016-11-15T21:38:01.978Z,1012.67
2016-11-15T21:39:10.612Z,1012.7
2016-11-15T21:40:19.282Z,1012.71
2016-11-15T21:41:27.907Z,1012.78
2016-11-15T21:42:36.553Z,1012.79
2016-11-15T21:43:45.188Z,1012.73
2016-11-15T21:44:53.822Z,1012.74
2016-11-15T21:46:02.462Z,1012.73
2016-11-15T21:47:11.087Z,1012.76
2016-11-15T21:48:19.751Z,1012.75
2016-11-15T21:49:28.364Z,1012.76
2016-11-15T21:50:36.975Z,1012.77
2016-11-15T21:51:45.577Z,1012.74
2016-11-15T21:52:54.168Z,1012.72
2016-11-15T21:54:03.118Z,1012.7
2016-11-15T21:55:11.736Z,1012.74
2016-11-15T21:56:20.360Z,1012.69
2016-11-15T21:57:28.974Z,1012.71
2016-11-15T21:58:37.590Z,1012.74
2016-11-15T21:59:46.218Z,1012.62
2016-11-15T22:00:54.862Z,1012.74
2016-11-15T22:02:03.492Z,1012.77
2016-11-15T22:03:12.128Z,1012.68
2016-11-15T22:04:20.753Z,1012.62
2016-11-15T22:05:29.397Z,1012.74
2016-11-15T22:06:38.039Z,1012.74
2016-11-15T22:07:46.671Z,1012.79
2016-11-15T22:08:55.307Z,1012.76
2016-11-15T22:10:03.910Z,1012.74
2016-11-15T22:11:12.886Z,1012.76